Detall de PIREP

Printer-friendly versionPDF version

[2014/07/06 07:11:00]
Flight IATA:CT2203
Pilot Number:044
Company ICAO:CAT
Aircraft Type:F100/A
PAX:100
Aircraft Registration:PFJ
Departing Airport: LFBD
Destination Airport: LFMP
Alternate Airport:LFBO
Online: VATSIM
Route:N0350F190 SAU G39 SECHE/N0450F230 UN863 AGN UN727 LOMRA/N0350F190 R17 MORIL
Flight Level:F230
No Slew and time accel
No pause
Crash detect
Detect pilot in Cockpit between each 30 and 45 minutes
07:11 Zero fuel Weight: 80904 Lbs, Fuel Weight: 10571 Lbs
07:11 VATSIM:LFBD 060630Z AUTO 09003KT 070V130 9999 FEW047/// SCT058/// BKN160/// ///CB 20/17 Q1008
07:11 VATSIM:LFMP 060630Z 26004KT 210V290 9999 FEW010 22/19 Q1010 NOSIG
07:12 Parking Brakes off
07:23 Take-off
07:23 Take off Weight: 90830 Lbs
07:23 Wind: 105º @ 003 Knots Heading: 106º
07:23 POS N44º 49´ 31´´ W000º 42´ 06´´
07:23 Flaps:1 at 182 Knots
07:23 Gear Up: 186 Knots
07:24 Flaps:0 at 161Knots
07:38 Wind:102º@018 Knots Heading: 115º Ground Speed: 323 Knots Altitude 19435 ft
07:40 TOC
07:40 Fuel Weight: 8021 Lb
07:52 TOD
07:52 Fuel Weight: 7225 Lb
07:53 Wind:138º@027 Knots Heading: 131º Ground Speed: 326 Knots Altitude 21486 ft
08:05 Flaps:1 at 195 Knots
08:07 Gear Down: 180 Knots
08:07 Flaps:2 at 177 Knots
08:07 Flaps:1 at 173 Knots
08:08 Wind:094º@013 Knots Heading: 143º Ground Speed: 170 Knots Altitude 1994 ft
08:08 Flaps:2 at 170 Knots
08:08 Flaps:3 at 169 Knots
08:10 Flaps:4 at 157 Knots
08:15 TouchDown:Rate -385 ft/min Speed: 120 Knots
08:16 VATSIM:LFMP 060800Z VRB03KT 9999 FEW020 26/19 Q1010 NOSIG
08:16 Land
08:16 Wind:106º@009 Knots
08:16 Heading: 146º
08:16 Flight Duration: 00:53
08:16 Landing Weight: 86774 Lbs
08:16 POS N42º 44´ 35´´ E002º 52´ 15´´
08:17 Parking brakes on
08:17 Block to Block Duration: 01:05
08:17 Final Fuel: 5837 Lbls
08:17 Spent Fuel: 4733 Lbls
08:17 Flight Length: 221 NM
08:17 TOD Land Length: 86 NM

Exportar CSV

Powered by Drupal - Modified by Danger4k